Hauptseite
METAR-TAF:

METAR-TAF

Flughäfen :

Qikiqtarjuaq, Nunavut, Kanada

Breite: 67-33N, Länge: 064-02W, Höhe: 6 m

Beobachtung

Neuester Wetterbericht von vor 53 Minuten, um 03:00 UTC
Wind 5 kt aus Südost
Temperatur -3°C
Luftfeuchtigkeit 86%
Luftdruck 1021 hPa
Sichtweite: 14.5 km
Himmel klar

METAR: CYVM 190300Z AUTO 14005KT 9SM CLR M03/M05 A3014 RMK SLP207

Zeit: 23:53 (03:53 UTC)

Prognose

Neuester Wetterbericht von vor 3 Stunden und 15 Minuten, um 00:38 UTC
Gültige Prognose vom 19 um 01 UTC bis 19 um 13 UTC
Wind 3 kt aus unterschiedlichen Richtungen
Sichtweite: 10 km
Aufgelockert bewölkt in der Höhe von 2000 ft
Zeitweise
vom 19 um 01 UTC bis 19 um 13 UTC
Aufgelockert bewölkt in der Höhe von 1000 ft
Durchbrochene Bewölkung in der Höhe von 2000 ft

TAF: CYVM 190038Z 1901/1913 VRB03KT P6SM SCT020 TEMPO 1901/1913 SCT010 BKN020 RMK FCST BASED ON AUTO OBS. NXT FCST BY 190700Z

Wetterbeobachtungen und Prognosen von mehr als 4000 Flughäfen (METAR und TAF Bericht).

Die verfügbaren Stationen werden durch gelbe und rote Markierungen auf der Karte dargestellt.

Führen Sie die Maus auf sie, um den Namen der Station zu sehen.

Darauf klicken, um die Beobachtung von Wetterbeobachtungen und Prognosen zu sehen.

Um die Karte zu ändern : klicken Sie auf den grünen Tasten mit einem schwarzen Kreuz Zum Vergrößern, auf den grünen Button mit einem Gedankenstrich zu verkleinern, oder auf die grünen Pfeile für benachbarte Karten.


METAR-TAF: